メインページ
METAR-TAF:

METAR-TAF

空港 :

リフカ島空港

リフカ島, トンガ

緯度: 19-46-36S, 経度: 174-20-28W, 海抜: 9m

現時点の気象観測

当レポートは3時間30分前の12:00(UTC)に作成
の風 10kt
気温 24°C
湿度 89%
気圧 1012 hPa
視程10km以上
高度900ftの雲はほとんどない
高度1700ftの雲は散在している
高度11000ftの曇り
弱いにわか雨

METAR: NFTL 141200Z 10010KT 9999 -SHRA FEW009 SCT017 OVC110 24/22 Q1012

時間: 05:30 (15:30 UTC)


TAF: 見つかりません

4,000以上の空港の気象観測と天気予報(METAR報とTAF報)

利用可能な観測所は地図上に黄色い丸と赤い丸で示す。

丸の上にカーソルを重ねると観測所名を参照できる。

次にクリックすると気象観測と天気予報を参照できる。

マップの切り替え:黒色「×」印の緑ボタンをクリックして拡大、「-」印の緑ボタンをクリックして縮小、緑色の三角印をクリックして隣りの地図に切り替え


METAR-TAF: